sensor_id;sensor_type;location;lat;lon;timestamp;pressure;altitude;pressure_sealevel;temperature;humidity
69855;BME280;57146;48.140;16.304;2023-08-06T00:00:42;98216.03;;;15.18;100.00
69855;BME280;57146;48.140;16.304;2023-08-06T00:03:33;98214.50;;;15.17;100.00
69855;BME280;57146;48.140;16.304;2023-08-06T00:06:00;98211.84;;;15.17;100.00
69855;BME280;57146;48.140;16.304;2023-08-06T00:08:27;98213.75;;;15.17;100.00
69855;BME280;57146;48.140;16.304;2023-08-06T00:10:54;98206.13;;;15.15;100.00
69855;BME280;57146;48.140;16.304;2023-08-06T00:13:23;98214.88;;;15.16;100.00
69855;BME280;57146;48.140;16.304;2023-08-06T00:15:50;98201.97;;;15.14;100.00
69855;BME280;57146;48.140;16.304;2023-08-06T00:18:17;98206.50;;;15.14;100.00
69855;BME280;57146;48.140;16.304;2023-08-06T00:20:44;98191.72;;;15.13;100.00
69855;BME280;57146;48.140;16.304;2023-08-06T00:23:12;98192.81;;;15.12;100.00
69855;BME280;57146;48.140;16.304;2023-08-06T00:26:00;98199.69;;;15.13;100.00
69855;BME280;57146;48.140;16.304;2023-08-06T00:28:28;98198.56;;;15.14;100.00
69855;BME280;57146;48.140;16.304;2023-08-06T00:30:56;98187.91;;;15.10;100.00
69855;BME280;57146;48.140;16.304;2023-08-06T00:33:24;98196.22;;;15.08;100.00
69855;BME280;57146;48.140;16.304;2023-08-06T00:35:51;98194.31;;;15.09;100.00
69855;BME280;57146;48.140;16.304;2023-08-06T00:38:19;98199.56;;;15.05;100.00
69855;BME280;57146;48.140;16.304;2023-08-06T00:40:47;98194.28;;;15.05;100.00
69855;BME280;57146;48.140;16.304;2023-08-06T00:43:15;98187.41;;;15.04;100.00
69855;BME280;57146;48.140;16.304;2023-08-06T00:45:43;98191.19;;;15.03;100.00
69855;BME280;57146;48.140;16.304;2023-08-06T00:48:11;98197.63;;;15.02;100.00
69855;BME280;57146;48.140;16.304;2023-08-06T00:50:38;98200.28;;;15.02;100.00
69855;BME280;57146;48.140;16.304;2023-08-06T00:53:06;98196.50;;;15.03;100.00
69855;BME280;57146;48.140;16.304;2023-08-06T00:55:33;98193.09;;;15.03;100.00
69855;BME280;57146;48.140;16.304;2023-08-06T00:58:01;98194.56;;;15.00;100.00
69855;BME280;57146;48.140;16.304;2023-08-06T01:00:28;98188.84;;;14.98;100.00
69855;BME280;57146;48.140;16.304;2023-08-06T01:02:56;98177.84;;;14.96;100.00
69855;BME280;57146;48.140;16.304;2023-08-06T01:05:23;98179.72;;;14.96;100.00
69855;BME280;57146;48.140;16.304;2023-08-06T01:13:32;98166.06;;;14.94;100.00
69855;BME280;57146;48.140;16.304;2023-08-06T01:16:01;98166.06;;;14.94;100.00
69855;BME280;57146;48.140;16.304;2023-08-06T01:18:30;98168.31;;;14.92;100.00
69855;BME280;57146;48.140;16.304;2023-08-06T01:21:01;98169.06;;;14.92;100.00
69855;BME280;57146;48.140;16.304;2023-08-06T01:23:28;98165.34;;;14.97;100.00
69855;BME280;57146;48.140;16.304;2023-08-06T01:28:52;98162.25;;;14.91;100.00
69855;BME280;57146;48.140;16.304;2023-08-06T01:31:30;98154.63;;;14.90;100.00
69855;BME280;57146;48.140;16.304;2023-08-06T01:33:59;98144.78;;;14.90;100.00
69855;BME280;57146;48.140;16.304;2023-08-06T01:36:28;98142.88;;;14.87;100.00
69855;BME280;57146;48.140;16.304;2023-08-06T01:38:55;98136.78;;;14.87;100.00
69855;BME280;57146;48.140;16.304;2023-08-06T01:41:24;98133.75;;;14.84;100.00
69855;BME280;57146;48.140;16.304;2023-08-06T01:43:51;98130.34;;;14.84;100.00
69855;BME280;57146;48.140;16.304;2023-08-06T01:46:18;98127.69;;;14.84;100.00
69855;BME280;57146;48.140;16.304;2023-08-06T01:48:46;98117.44;;;14.82;100.00
69855;BME280;57146;48.140;16.304;2023-08-06T01:51:13;98114.03;;;14.82;100.00
69855;BME280;57146;48.140;16.304;2023-08-06T01:53:43;98129.91;;;14.82;100.00
69855;BME280;57146;48.140;16.304;2023-08-06T01:56:11;98115.91;;;14.81;100.00
69855;BME280;57146;48.140;16.304;2023-08-06T01:58:38;98127.69;;;14.84;100.00
69855;BME280;57146;48.140;16.304;2023-08-06T02:01:05;98119.75;;;14.84;100.00
69855;BME280;57146;48.140;16.304;2023-08-06T02:03:32;98111.38;;;14.82;100.00
69855;BME280;57146;48.140;16.304;2023-08-06T02:05:59;98114.72;;;14.79;100.00
69855;BME280;57146;48.140;16.304;2023-08-06T02:08:27;98119.28;;;14.78;100.00
69855;BME280;57146;48.140;16.304;2023-08-06T02:10:56;98107.50;;;14.76;100.00
69855;BME280;57146;48.140;16.304;2023-08-06T02:13:23;98106.03;;;14.78;100.00
69855;BME280;57146;48.140;16.304;2023-08-06T02:15:50;98119.63;;;14.77;100.00
69855;BME280;57146;48.140;16.304;2023-08-06T02:18:17;98108.28;;;14.76;100.00
69855;BME280;57146;48.140;16.304;2023-08-06T02:20:56;98118.88;;;14.76;100.00
69855;BME280;57146;48.140;16.304;2023-08-06T02:23:23;98122.28;;;14.77;100.00
69855;BME280;57146;48.140;16.304;2023-08-06T02:26:01;98108.28;;;14.76;100.00
69855;BME280;57146;48.140;16.304;2023-08-06T02:28:30;98109.38;;;14.75;100.00
69855;BME280;57146;48.140;16.304;2023-08-06T02:30:57;98109.03;;;14.77;100.00
69855;BME280;57146;48.140;16.304;2023-08-06T02:33:27;98106.41;;;14.77;100.00
69855;BME280;57146;48.140;16.304;2023-08-06T02:36:01;98097.31;;;14.78;100.00
69855;BME280;57146;48.140;16.304;2023-08-06T02:38:29;98095.47;;;14.82;100.00
69855;BME280;57146;48.140;16.304;2023-08-06T02:41:22;98091.66;;;14.79;99.70
69855;BME280;57146;48.140;16.304;2023-08-06T02:43:50;98083.69;;;14.79;98.93
69855;BME280;57146;48.140;16.304;2023-08-06T02:46:17;98079.94;;;14.80;98.48
69855;BME280;57146;48.140;16.304;2023-08-06T02:48:44;98079.19;;;14.80;98.36
69855;BME280;57146;48.140;16.304;2023-08-06T02:51:12;98076.94;;;14.82;98.02
69855;BME280;57146;48.140;16.304;2023-08-06T02:53:41;98071.63;;;14.82;99.00
69855;BME280;57146;48.140;16.304;2023-08-06T02:56:10;98068.59;;;14.80;98.10
69855;BME280;57146;48.140;16.304;2023-08-06T02:58:54;98075.03;;;14.82;96.14
69855;BME280;57146;48.140;16.304;2023-08-06T03:01:52;98070.50;;;14.83;96.53
69855;BME280;57146;48.140;16.304;2023-08-06T03:04:32;98077.00;;;14.85;96.09
69855;BME280;57146;48.140;16.304;2023-08-06T03:06:59;98070.56;;;14.87;95.06
69855;BME280;57146;48.140;16.304;2023-08-06T03:09:36;98066.88;;;14.91;95.86
69855;BME280;57146;48.140;16.304;2023-08-06T03:12:31;98077.47;;;14.91;94.98
69855;BME280;57146;48.140;16.304;2023-08-06T03:15:01;98081.22;;;14.90;95.27
69855;BME280;57146;48.140;16.304;2023-08-06T03:17:29;98089.94;;;14.91;96.06
69855;BME280;57146;48.140;16.304;2023-08-06T03:19:58;98094.47;;;14.90;96.40
69855;BME280;57146;48.140;16.304;2023-08-06T03:22:25;98082.34;;;14.89;96.97
69855;BME280;57146;48.140;16.304;2023-08-06T03:24:53;98091.81;;;14.90;96.78
69855;BME280;57146;48.140;16.304;2023-08-06T03:27:24;98090.28;;;14.89;96.98
69855;BME280;57146;48.140;16.304;2023-08-06T03:29:51;98083.09;;;14.90;96.93
69855;BME280;57146;48.140;16.304;2023-08-06T03:32:22;98078.97;;;14.92;96.72
69855;BME280;57146;48.140;16.304;2023-08-06T03:34:49;98084.28;;;14.92;96.79
69855;BME280;57146;48.140;16.304;2023-08-06T03:37:16;98075.19;;;14.93;97.20
69855;BME280;57146;48.140;16.304;2023-08-06T03:39:43;98078.28;;;14.95;97.49
69855;BME280;57146;48.140;16.304;2023-08-06T03:42:10;98072.91;;;14.92;97.38
69855;BME280;57146;48.140;16.304;2023-08-06T03:44:38;98073.69;;;14.92;97.95
69855;BME280;57146;48.140;16.304;2023-08-06T03:47:07;98069.97;;;14.97;97.11
69855;BME280;57146;48.140;16.304;2023-08-06T03:49:34;98064.66;;;14.97;95.70
69855;BME280;57146;48.140;16.304;2023-08-06T03:52:04;98068.06;;;14.97;95.44
69855;BME280;57146;48.140;16.304;2023-08-06T03:54:33;98063.91;;;14.96;95.76
69855;BME280;57146;48.140;16.304;2023-08-06T03:57:01;98061.25;;;14.96;95.95
69855;BME280;57146;48.140;16.304;2023-08-06T03:59:28;98054.09;;;15.00;95.09
69855;BME280;57146;48.140;16.304;2023-08-06T04:01:56;98054.81;;;14.97;95.44
69855;BME280;57146;48.140;16.304;2023-08-06T04:04:24;98060.53;;;14.99;95.59
69855;BME280;57146;48.140;16.304;2023-08-06T04:06:50;98051.81;;;14.99;94.50
69855;BME280;57146;48.140;16.304;2023-08-06T04:09:21;98047.28;;;14.99;94.83
69855;BME280;57146;48.140;16.304;2023-08-06T04:11:49;98059.41;;;15.00;93.85
69855;BME280;57146;48.140;16.304;2023-08-06T04:14:17;98054.09;;;15.00;95.23
69855;BME280;57146;48.140;16.304;2023-08-06T04:16:45;98065.13;;;15.02;94.20
69855;BME280;57146;48.140;16.304;2023-08-06T04:19:13;98065.47;;;15.01;93.54
69855;BME280;57146;48.140;16.304;2023-08-06T04:21:41;98061.34;;;15.03;94.56
69855;BME280;57146;48.140;16.304;2023-08-06T04:24:10;98063.59;;;15.01;93.61
69855;BME280;57146;48.140;16.304;2023-08-06T04:26:37;98062.81;;;15.01;93.44
69855;BME280;57146;48.140;16.304;2023-08-06T04:29:05;98054.09;;;15.00;92.81
69855;BME280;57146;48.140;16.304;2023-08-06T04:31:33;98060.13;;;14.97;93.39
69855;BME280;57146;48.140;16.304;2023-08-06T04:34:00;98068.47;;;14.99;92.73
69855;BME280;57146;48.140;16.304;2023-08-06T04:36:28;98055.59;;;14.98;92.76
69855;BME280;57146;48.140;16.304;2023-08-06T04:38:59;98061.66;;;14.98;93.47
69855;BME280;57146;48.140;16.304;2023-08-06T04:41:26;98055.22;;;14.99;92.81
69855;BME280;57146;48.140;16.304;2023-08-06T04:43:54;98054.09;;;15.00;92.85
69855;BME280;57146;48.140;16.304;2023-08-06T04:46:22;98056.03;;;15.03;92.29
69855;BME280;57146;48.140;16.304;2023-08-06T04:48:49;98054.16;;;15.04;93.53
69855;BME280;57146;48.140;16.304;2023-08-06T04:51:17;98051.50;;;15.04;92.61
69855;BME280;57146;48.140;16.304;2023-08-06T04:53:44;98059.09;;;15.05;92.95
69855;BME280;57146;48.140;16.304;2023-08-06T04:56:12;98057.22;;;15.06;92.52
69855;BME280;57146;48.140;16.304;2023-08-06T04:58:42;98057.97;;;15.06;92.21
69855;BME280;57146;48.140;16.304;2023-08-06T05:01:09;98063.31;;;15.10;91.89
69855;BME280;57146;48.140;16.304;2023-08-06T05:03:37;98058.78;;;15.11;92.20
69855;BME280;57146;48.140;16.304;2023-08-06T05:06:05;98046.66;;;15.09;91.98
69855;BME280;57146;48.140;16.304;2023-08-06T05:08:35;98044.78;;;15.10;92.92
69855;BME280;57146;48.140;16.304;2023-08-06T05:11:02;98044.78;;;15.10;92.35
69855;BME280;57146;48.140;16.304;2023-08-06T05:13:29;98044.00;;;15.09;92.31
69855;BME280;57146;48.140;16.304;2023-08-06T05:16:20;98048.19;;;15.11;91.94
69855;BME280;57146;48.140;16.304;2023-08-06T05:18:48;98045.19;;;15.12;91.91
69855;BME280;57146;48.140;16.304;2023-08-06T05:21:15;98058.03;;;15.10;91.58
69855;BME280;57146;48.140;16.304;2023-08-06T05:23:43;98057.66;;;15.12;91.27
69855;BME280;57146;48.140;16.304;2023-08-06T05:26:11;98059.56;;;15.11;92.03
69855;BME280;57146;48.140;16.304;2023-08-06T05:28:38;98055.78;;;15.12;92.00
69855;BME280;57146;48.140;16.304;2023-08-06T05:31:08;98049.03;;;15.18;92.52
69855;BME280;57146;48.140;16.304;2023-08-06T05:33:35;98057.38;;;15.17;91.86
69855;BME280;57146;48.140;16.304;2023-08-06T05:36:02;98064.56;;;15.16;91.53
69855;BME280;57146;48.140;16.304;2023-08-06T05:38:30;98055.09;;;15.19;92.43
69855;BME280;57146;48.140;16.304;2023-08-06T05:40:57;98053.56;;;15.18;91.86
69855;BME280;57146;48.140;16.304;2023-08-06T05:43:30;98056.66;;;15.20;91.46
69855;BME280;57146;48.140;16.304;2023-08-06T05:45:57;98052.16;;;15.24;92.85
69855;BME280;57146;48.140;16.304;2023-08-06T05:48:25;98058.97;;;15.25;91.98
69855;BME280;57146;48.140;16.304;2023-08-06T05:50:52;98068.88;;;15.28;91.88
69855;BME280;57146;48.140;16.304;2023-08-06T05:53:19;98064.31;;;15.28;91.65
69855;BME280;57146;48.140;16.304;2023-08-06T05:55:47;98062.09;;;15.30;91.89
69855;BME280;57146;48.140;16.304;2023-08-06T05:58:14;98061.66;;;15.28;91.10
69855;BME280;57146;48.140;16.304;2023-08-06T06:00:41;98065.09;;;15.29;91.51
69855;BME280;57146;48.140;16.304;2023-08-06T06:03:08;98068.16;;;15.31;91.18
69855;BME280;57146;48.140;16.304;2023-08-06T06:05:38;98061.72;;;15.32;90.17
69855;BME280;57146;48.140;16.304;2023-08-06T06:08:05;98070.88;;;15.38;91.23
69855;BME280;57146;48.140;16.304;2023-08-06T06:10:32;98059.91;;;15.40;89.41
69855;BME280;57146;48.140;16.304;2023-08-06T06:13:01;98073.59;;;15.42;88.78
69855;BME280;57146;48.140;16.304;2023-08-06T06:15:28;98078.13;;;15.41;88.97
69855;BME280;57146;48.140;16.304;2023-08-06T06:17:55;98086.47;;;15.43;89.78
69855;BME280;57146;48.140;16.304;2023-08-06T06:20:22;98094.09;;;15.45;89.38
69855;BME280;57146;48.140;16.304;2023-08-06T06:22:48;98094.13;;;15.48;89.44
69855;BME280;57146;48.140;16.304;2023-08-06T06:25:19;98096.41;;;15.50;88.62
69855;BME280;57146;48.140;16.304;2023-08-06T06:27:46;98105.13;;;15.50;89.39
69855;BME280;57146;48.140;16.304;2023-08-06T06:30:17;98091.88;;;15.50;89.59
69855;BME280;57146;48.140;16.304;2023-08-06T06:32:44;98088.09;;;15.51;89.15
69855;BME280;57146;48.140;16.304;2023-08-06T06:35:12;98093.78;;;15.53;89.23
69855;BME280;57146;48.140;16.304;2023-08-06T06:37:40;98096.91;;;15.59;89.62
69855;BME280;57146;48.140;16.304;2023-08-06T06:40:07;98095.72;;;15.56;88.69
69855;BME280;57146;48.140;16.304;2023-08-06T06:42:34;98093.88;;;15.61;89.45
69855;BME280;57146;48.140;16.304;2023-08-06T06:45:08;98087.84;;;15.64;89.34
69855;BME280;57146;48.140;16.304;2023-08-06T06:47:35;98092.03;;;15.65;89.28
69855;BME280;57146;48.140;16.304;2023-08-06T06:50:02;98093.59;;;15.66;88.99
69855;BME280;57146;48.140;16.304;2023-08-06T06:52:29;98082.63;;;15.67;90.15
69855;BME280;57146;48.140;16.304;2023-08-06T06:54:58;98079.97;;;15.67;89.64
69855;BME280;57146;48.140;16.304;2023-08-06T06:57:25;98074.31;;;15.69;89.24
69855;BME280;57146;48.140;16.304;2023-08-06T06:59:52;98073.19;;;15.70;88.88
69855;BME280;57146;48.140;16.304;2023-08-06T07:02:19;98081.53;;;15.72;88.90
69855;BME280;57146;48.140;16.304;2023-08-06T07:04:46;98086.50;;;15.73;88.75
69855;BME280;57146;48.140;16.304;2023-08-06T07:07:13;98092.19;;;15.75;89.00
69855;BME280;57146;48.140;16.304;2023-08-06T07:09:40;98099.41;;;15.78;89.81
69855;BME280;57146;48.140;16.304;2023-08-06T07:12:07;98103.22;;;15.77;87.88
69855;BME280;57146;48.140;16.304;2023-08-06T07:14:34;98098.66;;;15.78;88.62
69855;BME280;57146;48.140;16.304;2023-08-06T07:17:01;98092.63;;;15.81;88.22
69855;BME280;57146;48.140;16.304;2023-08-06T07:19:30;98100.59;;;15.81;88.16
69855;BME280;57146;48.140;16.304;2023-08-06T07:21:57;98076.72;;;15.81;87.72
69855;BME280;57146;48.140;16.304;2023-08-06T07:24:24;98072.59;;;15.84;86.46
69855;BME280;57146;48.140;16.304;2023-08-06T07:26:51;98077.50;;;15.85;87.09
69855;BME280;57146;48.140;16.304;2023-08-06T07:29:18;98082.47;;;15.87;87.07
69855;BME280;57146;48.140;16.304;2023-08-06T07:31:45;98082.13;;;15.92;86.57
69855;BME280;57146;48.140;16.304;2023-08-06T07:34:13;98099.63;;;15.96;86.33
69855;BME280;57146;48.140;16.304;2023-08-06T07:36:40;98103.81;;;15.97;85.44
69855;BME280;57146;48.140;16.304;2023-08-06T07:39:06;98102.31;;;16.00;85.60
69855;BME280;57146;48.140;16.304;2023-08-06T07:41:35;98101.59;;;16.03;84.89
69855;BME280;57146;48.140;16.304;2023-08-06T07:44:02;98099.28;;;15.98;84.69
69855;BME280;57146;48.140;16.304;2023-08-06T07:46:28;98098.13;;;15.99;85.05
69855;BME280;57146;48.140;16.304;2023-08-06T07:48:55;98091.28;;;15.94;84.61
69855;BME280;57146;48.140;16.304;2023-08-06T07:51:22;98088.63;;;15.94;85.28
69855;BME280;57146;48.140;16.304;2023-08-06T07:53:49;98079.94;;;15.97;84.69
69855;BME280;57146;48.140;16.304;2023-08-06T07:56:16;98070.41;;;15.96;84.02
69855;BME280;57146;48.140;16.304;2023-08-06T07:58:43;98062.47;;;15.96;84.02
69855;BME280;57146;48.140;16.304;2023-08-06T08:01:10;98056.44;;;15.99;83.91
69855;BME280;57146;48.140;16.304;2023-08-06T08:03:37;98059.13;;;16.03;83.50
69855;BME280;57146;48.140;16.304;2023-08-06T08:06:28;98067.53;;;16.09;83.45
69855;BME280;57146;48.140;16.304;2023-08-06T08:08:55;98057.59;;;16.02;83.13
69855;BME280;57146;48.140;16.304;2023-08-06T08:11:22;98068.22;;;16.02;83.72
69855;BME280;57146;48.140;16.304;2023-08-06T08:13:49;98066.28;;;15.99;83.55
69855;BME280;57146;48.140;16.304;2023-08-06T08:16:16;98058.72;;;16.01;83.74
69855;BME280;57146;48.140;16.304;2023-08-06T08:18:43;98057.97;;;16.04;83.35
69855;BME280;57146;48.140;16.304;2023-08-06T08:21:10;98056.13;;;16.04;84.02
69855;BME280;57146;48.140;16.304;2023-08-06T08:23:37;98050.44;;;16.06;83.45
69855;BME280;57146;48.140;16.304;2023-08-06T08:26:03;98042.47;;;16.06;83.39
69855;BME280;57146;48.140;16.304;2023-08-06T08:28:30;98052.31;;;16.06;82.38
69855;BME280;57146;48.140;16.304;2023-08-06T08:30:57;98051.88;;;16.00;82.18
69855;BME280;57146;48.140;16.304;2023-08-06T08:33:24;98048.50;;;16.03;83.13
69855;BME280;57146;48.140;16.304;2023-08-06T08:35:51;98047.00;;;16.06;82.88
69855;BME280;57146;48.140;16.304;2023-08-06T08:38:18;98046.59;;;16.03;82.30
69855;BME280;57146;48.140;16.304;2023-08-06T08:40:46;98053.06;;;16.02;82.82
69855;BME280;57146;48.140;16.304;2023-08-06T08:43:15;98049.97;;;16.00;82.34
69855;BME280;57146;48.140;16.304;2023-08-06T08:45:42;98056.84;;;16.01;82.37
69855;BME280;57146;48.140;16.304;2023-08-06T08:48:12;98054.22;;;16.05;82.55
69855;BME280;57146;48.140;16.304;2023-08-06T08:50:39;98053.91;;;16.14;83.30
69855;BME280;57146;48.140;16.304;2023-08-06T08:53:07;98055.09;;;16.20;82.43
69855;BME280;57146;48.140;16.304;2023-08-06T08:55:35;98066.06;;;16.18;82.22
69855;BME280;57146;48.140;16.304;2023-08-06T08:58:03;98067.63;;;16.19;82.65
69855;BME280;57146;48.140;16.304;2023-08-06T09:00:31;98075.91;;;16.14;81.75
69855;BME280;57146;48.140;16.304;2023-08-06T09:02:58;98067.13;;;16.07;81.23
69855;BME280;57146;48.140;16.304;2023-08-06T09:05:28;98071.63;;;16.02;82.33
69855;BME280;57146;48.140;16.304;2023-08-06T09:08:04;98073.13;;;16.00;82.56
69855;BME280;57146;48.140;16.304;2023-08-06T09:10:33;98076.53;;;16.00;82.85
69855;BME280;57146;48.140;16.304;2023-08-06T09:13:00;98095.06;;;15.97;82.65
69855;BME280;57146;48.140;16.304;2023-08-06T09:15:28;98090.91;;;15.96;82.99
69855;BME280;57146;48.140;16.304;2023-08-06T09:17:55;98099.63;;;15.96;83.30
69855;BME280;57146;48.140;16.304;2023-08-06T09:20:23;98098.50;;;15.97;84.42
69855;BME280;57146;48.140;16.304;2023-08-06T09:22:52;98104.53;;;15.94;85.39
69855;BME280;57146;48.140;16.304;2023-08-06T09:25:23;98107.13;;;15.87;85.76
69855;BME280;57146;48.140;16.304;2023-08-06T09:27:51;98109.72;;;15.84;86.44
69855;BME280;57146;48.140;16.304;2023-08-06T09:30:34;98108.56;;;15.81;87.17
69855;BME280;57146;48.140;16.304;2023-08-06T09:33:02;98113.31;;;15.68;87.35
69855;BME280;57146;48.140;16.304;2023-08-06T09:35:30;98114.31;;;15.56;89.51
69855;BME280;57146;48.140;16.304;2023-08-06T09:38:08;98107.78;;;15.50;90.73
69855;BME280;57146;48.140;16.304;2023-08-06T09:40:36;98112.28;;;15.46;91.58
69855;BME280;57146;48.140;16.304;2023-08-06T09:43:04;98109.94;;;15.41;92.54
69855;BME280;57146;48.140;16.304;2023-08-06T09:45:34;98109.22;;;15.44;95.26
69855;BME280;57146;48.140;16.304;2023-08-06T09:48:08;98108.78;;;15.39;93.24
69855;BME280;57146;48.140;16.304;2023-08-06T09:50:37;98106.06;;;15.35;93.39
69855;BME280;57146;48.140;16.304;2023-08-06T09:53:05;98110.97;;;15.33;93.69
69855;BME280;57146;48.140;16.304;2023-08-06T09:55:33;98122.34;;;15.33;94.78
69855;BME280;57146;48.140;16.304;2023-08-06T09:58:01;98120.38;;;15.27;97.27
69855;BME280;57146;48.140;16.304;2023-08-06T10:00:30;98125.16;;;15.18;97.81
69855;BME280;57146;48.140;16.304;2023-08-06T10:03:07;98130.72;;;15.09;99.32
69855;BME280;57146;48.140;16.304;2023-08-06T10:05:36;98119.66;;;15.03;99.80
69855;BME280;57146;48.140;16.304;2023-08-06T10:08:05;98109.75;;;15.00;98.50
69855;BME280;57146;48.140;16.304;2023-08-06T10:10:34;98128.00;;;15.05;99.94
69855;BME280;57146;48.140;16.304;2023-08-06T10:13:04;98137.47;;;15.06;100.00
69855;BME280;57146;48.140;16.304;2023-08-06T10:15:33;98128.13;;;15.13;100.00
69855;BME280;57146;48.140;16.304;2023-08-06T10:18:01;98129.28;;;15.15;98.60
69855;BME280;57146;48.140;16.304;2023-08-06T10:20:36;98136.16;;;15.20;98.89
69855;BME280;57146;48.140;16.304;2023-08-06T10:23:06;98131.56;;;15.17;98.59
69855;BME280;57146;48.140;16.304;2023-08-06T10:25:34;98144.41;;;15.15;98.74
69855;BME280;57146;48.140;16.304;2023-08-06T10:28:08;98133.41;;;15.13;98.46
69855;BME280;57146;48.140;16.304;2023-08-06T10:33:10;98130.50;;;15.21;95.99
69855;BME280;57146;48.140;16.304;2023-08-06T10:35:48;98139.69;;;15.27;96.97
69855;BME280;57146;48.140;16.304;2023-08-06T10:38:21;98148.50;;;15.35;97.29
69855;BME280;57146;48.140;16.304;2023-08-06T10:43:47;98151.63;;;15.41;93.01
69855;BME280;57146;48.140;16.304;2023-08-06T10:46:27;98150.81;;;15.40;94.09
69855;BME280;57146;48.140;16.304;2023-08-06T10:48:58;98151.19;;;15.39;96.70
69855;BME280;57146;48.140;16.304;2023-08-06T10:51:25;98149.97;;;15.32;97.25
69855;BME280;57146;48.140;16.304;2023-08-06T10:53:52;98146.22;;;15.33;97.56
69855;BME280;57146;48.140;16.304;2023-08-06T10:56:23;98152.31;;;15.38;98.21
69855;BME280;57146;48.140;16.304;2023-08-06T10:58:56;98141.75;;;15.41;95.85
69855;BME280;57146;48.140;16.304;2023-08-06T11:01:24;98143.00;;;15.51;94.18
69855;BME280;57146;48.140;16.304;2023-08-06T11:03:51;98148.78;;;15.56;92.92
69855;BME280;57146;48.140;16.304;2023-08-06T11:06:20;98145.47;;;15.63;92.49
69855;BME280;57146;48.140;16.304;2023-08-06T11:08:53;98146.34;;;15.71;91.85
69855;BME280;57146;48.140;16.304;2023-08-06T11:11:22;98154.00;;;15.76;87.56
69855;BME280;57146;48.140;16.304;2023-08-06T11:13:50;98152.16;;;15.80;87.31
69855;BME280;57146;48.140;16.304;2023-08-06T11:16:20;98154.06;;;15.83;87.03
69855;BME280;57146;48.140;16.304;2023-08-06T11:18:48;98155.22;;;15.86;86.63
69855;BME280;57146;48.140;16.304;2023-08-06T11:21:20;98163.56;;;15.84;87.23
69855;BME280;57146;48.140;16.304;2023-08-06T11:23:47;98153.66;;;15.81;85.86
69855;BME280;57146;48.140;16.304;2023-08-06T11:26:19;98158.16;;;15.77;84.92
69855;BME280;57146;48.140;16.304;2023-08-06T11:28:46;98150.56;;;15.75;85.64
69855;BME280;57146;48.140;16.304;2023-08-06T11:31:19;98160.78;;;15.73;84.42
69855;BME280;57146;48.140;16.304;2023-08-06T11:33:50;98152.41;;;15.71;84.35
69855;BME280;57146;48.140;16.304;2023-08-06T11:36:31;98158.47;;;15.72;83.97
69855;BME280;57146;48.140;16.304;2023-08-06T11:39:03;98162.25;;;15.71;85.58
69855;BME280;57146;48.140;16.304;2023-08-06T11:41:32;98166.78;;;15.70;84.09
69855;BME280;57146;48.140;16.304;2023-08-06T11:43:59;98171.34;;;15.70;84.05
69855;BME280;57146;48.140;16.304;2023-08-06T11:46:28;98163.38;;;15.70;84.85
69855;BME280;57146;48.140;16.304;2023-08-06T11:48:56;98175.47;;;15.67;84.87
69855;BME280;57146;48.140;16.304;2023-08-06T11:51:28;98177.38;;;15.67;85.32
69855;BME280;57146;48.140;16.304;2023-08-06T11:53:56;98177.69;;;15.65;86.64
69855;BME280;57146;48.140;16.304;2023-08-06T11:56:27;98175.41;;;15.64;86.06
69855;BME280;57146;48.140;16.304;2023-08-06T11:58:56;98177.25;;;15.60;87.48
69855;BME280;57146;48.140;16.304;2023-08-06T12:01:23;98177.19;;;15.56;86.79
69855;BME280;57146;48.140;16.304;2023-08-06T12:03:50;98173.72;;;15.52;86.93
69855;BME280;57146;48.140;16.304;2023-08-06T12:06:17;98185.44;;;15.51;87.85
69855;BME280;57146;48.140;16.304;2023-08-06T12:08:44;98183.22;;;15.53;89.89
69855;BME280;57146;48.140;16.304;2023-08-06T12:11:11;98176.38;;;15.52;87.63
69855;BME280;57146;48.140;16.304;2023-08-06T12:13:38;98174.50;;;15.52;89.00
69855;BME280;57146;48.140;16.304;2023-08-06T12:16:28;98173.78;;;15.55;89.64
69855;BME280;57146;48.140;16.304;2023-08-06T12:18:55;98181.75;;;15.55;90.04
69855;BME280;57146;48.140;16.304;2023-08-06T12:21:25;98173.78;;;15.55;88.61
69855;BME280;57146;48.140;16.304;2023-08-06T12:23:52;98190.50;;;15.60;88.47
69855;BME280;57146;48.140;16.304;2023-08-06T12:26:20;98187.44;;;15.57;90.94
69855;BME280;57146;48.140;16.304;2023-08-06T12:28:47;98187.84;;;15.60;89.37
69855;BME280;57146;48.140;16.304;2023-08-06T12:31:14;98190.88;;;15.62;89.01
69855;BME280;57146;48.140;16.304;2023-08-06T12:33:44;98191.38;;;15.67;90.96
69855;BME280;57146;48.140;16.304;2023-08-06T12:36:11;98195.47;;;15.65;87.73
69855;BME280;57146;48.140;16.304;2023-08-06T12:38:38;98188.38;;;15.69;87.95
69855;BME280;57146;48.140;16.304;2023-08-06T12:41:06;98199.44;;;15.74;88.51
69855;BME280;57146;48.140;16.304;2023-08-06T12:43:33;98192.63;;;15.73;88.08
69855;BME280;57146;48.140;16.304;2023-08-06T12:46:01;98188.47;;;15.76;87.80
69855;BME280;57146;48.140;16.304;2023-08-06T12:48:32;98188.13;;;15.77;88.44
69855;BME280;57146;48.140;16.304;2023-08-06T12:50:59;98190.44;;;15.83;88.86
69855;BME280;57146;48.140;16.304;2023-08-06T12:53:26;98193.50;;;15.85;87.86
69855;BME280;57146;48.140;16.304;2023-08-06T12:55:53;98200.00;;;15.87;88.58
69855;BME280;57146;48.140;16.304;2023-08-06T12:58:20;98203.44;;;15.91;87.54
69855;BME280;57146;48.140;16.304;2023-08-06T13:00:48;98207.66;;;15.96;88.05
69855;BME280;57146;48.140;16.304;2023-08-06T13:03:16;98201.28;;;16.00;89.12
69855;BME280;57146;48.140;16.304;2023-08-06T13:05:43;98196.38;;;16.02;88.28
69855;BME280;57146;48.140;16.304;2023-08-06T13:08:10;98194.94;;;16.09;87.64
69855;BME280;57146;48.140;16.304;2023-08-06T13:10:38;98199.91;;;16.14;86.50